sensor_id;sensor_type;location;lat;lon;timestamp;temperature;humidity
981;DHT22;479;53.514;9.994;2024-01-27T00:02:03;5.90;99.90
981;DHT22;479;53.514;9.994;2024-01-27T00:04:30;5.90;99.90
981;DHT22;479;53.514;9.994;2024-01-27T00:06:57;6.00;99.90
981;DHT22;479;53.514;9.994;2024-01-27T00:09:24;5.90;99.90
981;DHT22;479;53.514;9.994;2024-01-27T00:11:52;5.90;99.90
981;DHT22;479;53.514;9.994;2024-01-27T00:14:19;5.90;99.90
981;DHT22;479;53.514;9.994;2024-01-27T00:16:46;5.90;99.90
981;DHT22;479;53.514;9.994;2024-01-27T00:19:13;5.90;99.90
981;DHT22;479;53.514;9.994;2024-01-27T00:21:40;5.90;99.90
981;DHT22;479;53.514;9.994;2024-01-27T00:24:07;5.90;99.90
981;DHT22;479;53.514;9.994;2024-01-27T00:26:34;5.90;99.90
981;DHT22;479;53.514;9.994;2024-01-27T00:29:02;5.90;99.90
981;DHT22;479;53.514;9.994;2024-01-27T00:31:29;5.90;99.90
981;DHT22;479;53.514;9.994;2024-01-27T00:33:56;5.90;99.90
981;DHT22;479;53.514;9.994;2024-01-27T00:36:22;5.90;99.90
981;DHT22;479;53.514;9.994;2024-01-27T00:38:49;5.90;99.90
981;DHT22;479;53.514;9.994;2024-01-27T00:41:17;5.90;99.90
981;DHT22;479;53.514;9.994;2024-01-27T00:43:44;6.00;99.90
981;DHT22;479;53.514;9.994;2024-01-27T00:46:12;6.10;99.90
981;DHT22;479;53.514;9.994;2024-01-27T00:48:39;6.10;99.90
981;DHT22;479;53.514;9.994;2024-01-27T00:51:06;6.10;99.90
981;DHT22;479;53.514;9.994;2024-01-27T00:53:33;6.10;99.90
981;DHT22;479;53.514;9.994;2024-01-27T00:56:00;6.10;99.90
981;DHT22;479;53.514;9.994;2024-01-27T00:58:27;6.10;99.90
981;DHT22;479;53.514;9.994;2024-01-27T01:00:54;6.10;99.90
981;DHT22;479;53.514;9.994;2024-01-27T01:03:22;6.10;99.90
981;DHT22;479;53.514;9.994;2024-01-27T01:05:49;6.10;99.90
981;DHT22;479;53.514;9.994;2024-01-27T01:08:16;6.10;99.90
981;DHT22;479;53.514;9.994;2024-01-27T01:10:43;6.10;99.90
981;DHT22;479;53.514;9.994;2024-01-27T01:13:10;6.10;99.90
981;DHT22;479;53.514;9.994;2024-01-27T01:15:37;6.10;99.90
981;DHT22;479;53.514;9.994;2024-01-27T01:18:05;6.10;99.90
981;DHT22;479;53.514;9.994;2024-01-27T01:20:33;6.20;99.90
981;DHT22;479;53.514;9.994;2024-01-27T01:23:00;6.30;99.90
981;DHT22;479;53.514;9.994;2024-01-27T01:25:27;6.30;99.90
981;DHT22;479;53.514;9.994;2024-01-27T01:27:54;6.30;99.90
981;DHT22;479;53.514;9.994;2024-01-27T01:30:21;6.30;99.90
981;DHT22;479;53.514;9.994;2024-01-27T01:32:47;6.30;99.90
981;DHT22;479;53.514;9.994;2024-01-27T01:35:15;6.30;99.90
981;DHT22;479;53.514;9.994;2024-01-27T01:37:44;6.20;99.90
981;DHT22;479;53.514;9.994;2024-01-27T01:40:11;6.10;99.90
981;DHT22;479;53.514;9.994;2024-01-27T01:42:38;6.10;99.90
981;DHT22;479;53.514;9.994;2024-01-27T01:45:05;6.10;99.90
981;DHT22;479;53.514;9.994;2024-01-27T01:47:32;6.10;99.90
981;DHT22;479;53.514;9.994;2024-01-27T01:49:59;6.10;99.90
981;DHT22;479;53.514;9.994;2024-01-27T01:52:27;6.10;99.90
981;DHT22;479;53.514;9.994;2024-01-27T01:54:55;6.20;99.90
981;DHT22;479;53.514;9.994;2024-01-27T01:57:22;6.20;99.90
981;DHT22;479;53.514;9.994;2024-01-27T01:59:49;6.20;99.90
981;DHT22;479;53.514;9.994;2024-01-27T02:02:15;6.20;99.90
981;DHT22;479;53.514;9.994;2024-01-27T02:04:43;6.30;99.90
981;DHT22;479;53.514;9.994;2024-01-27T02:07:11;6.30;99.90
981;DHT22;479;53.514;9.994;2024-01-27T02:09:38;6.20;99.90
981;DHT22;479;53.514;9.994;2024-01-27T02:12:07;6.20;99.90
981;DHT22;479;53.514;9.994;2024-01-27T02:14:34;6.20;99.90
981;DHT22;479;53.514;9.994;2024-01-27T02:17:01;6.20;99.90
981;DHT22;479;53.514;9.994;2024-01-27T02:19:28;6.20;99.90
981;DHT22;479;53.514;9.994;2024-01-27T02:21:55;6.20;99.90
981;DHT22;479;53.514;9.994;2024-01-27T02:24:23;6.20;99.90
981;DHT22;479;53.514;9.994;2024-01-27T02:26:51;6.10;99.90
981;DHT22;479;53.514;9.994;2024-01-27T02:29:17;6.10;99.90
981;DHT22;479;53.514;9.994;2024-01-27T02:31:45;6.20;99.90
981;DHT22;479;53.514;9.994;2024-01-27T02:34:12;6.20;99.90
981;DHT22;479;53.514;9.994;2024-01-27T02:36:39;6.20;99.90
981;DHT22;479;53.514;9.994;2024-01-27T02:39:07;6.20;99.90
981;DHT22;479;53.514;9.994;2024-01-27T02:41:36;6.20;99.90
981;DHT22;479;53.514;9.994;2024-01-27T02:44:04;6.20;99.90
981;DHT22;479;53.514;9.994;2024-01-27T02:46:31;6.30;99.90
981;DHT22;479;53.514;9.994;2024-01-27T02:48:58;6.20;99.90
981;DHT22;479;53.514;9.994;2024-01-27T02:51:25;6.20;99.90
981;DHT22;479;53.514;9.994;2024-01-27T02:53:52;6.10;99.90
981;DHT22;479;53.514;9.994;2024-01-27T02:56:19;6.10;99.90
981;DHT22;479;53.514;9.994;2024-01-27T02:58:47;6.10;99.90
981;DHT22;479;53.514;9.994;2024-01-27T03:01:14;6.20;99.90
981;DHT22;479;53.514;9.994;2024-01-27T03:03:41;6.10;99.90
981;DHT22;479;53.514;9.994;2024-01-27T03:06:08;6.10;99.90
981;DHT22;479;53.514;9.994;2024-01-27T03:08:35;6.10;99.90
981;DHT22;479;53.514;9.994;2024-01-27T03:11:02;6.20;99.90
981;DHT22;479;53.514;9.994;2024-01-27T03:13:29;6.10;99.90
981;DHT22;479;53.514;9.994;2024-01-27T03:15:57;6.00;99.90
981;DHT22;479;53.514;9.994;2024-01-27T03:18:24;6.10;99.90
981;DHT22;479;53.514;9.994;2024-01-27T03:20:51;6.10;99.90
981;DHT22;479;53.514;9.994;2024-01-27T03:23:18;6.10;99.90
981;DHT22;479;53.514;9.994;2024-01-27T03:25:45;6.20;99.90
981;DHT22;479;53.514;9.994;2024-01-27T03:28:12;6.20;99.90
981;DHT22;479;53.514;9.994;2024-01-27T03:30:38;6.20;99.90
981;DHT22;479;53.514;9.994;2024-01-27T03:33:07;6.30;99.90
981;DHT22;479;53.514;9.994;2024-01-27T03:35:36;6.10;99.90
981;DHT22;479;53.514;9.994;2024-01-27T03:38:04;6.10;99.90
981;DHT22;479;53.514;9.994;2024-01-27T03:40:31;6.10;99.90
981;DHT22;479;53.514;9.994;2024-01-27T03:42:58;6.10;99.90
981;DHT22;479;53.514;9.994;2024-01-27T03:45:25;6.00;99.90
981;DHT22;479;53.514;9.994;2024-01-27T03:47:52;6.10;99.90
981;DHT22;479;53.514;9.994;2024-01-27T03:50:20;6.10;99.90
981;DHT22;479;53.514;9.994;2024-01-27T03:52:47;6.00;99.90
981;DHT22;479;53.514;9.994;2024-01-27T03:55:14;6.00;99.90
981;DHT22;479;53.514;9.994;2024-01-27T03:57:41;5.80;99.90
981;DHT22;479;53.514;9.994;2024-01-27T04:00:09;5.80;99.90
981;DHT22;479;53.514;9.994;2024-01-27T04:02:38;5.70;99.90
981;DHT22;479;53.514;9.994;2024-01-27T04:05:05;5.80;99.90
981;DHT22;479;53.514;9.994;2024-01-27T04:07:34;5.80;99.90
981;DHT22;479;53.514;9.994;2024-01-27T04:10:02;5.80;99.90
981;DHT22;479;53.514;9.994;2024-01-27T04:12:29;5.70;99.90
981;DHT22;479;53.514;9.994;2024-01-27T04:14:57;5.70;99.90
981;DHT22;479;53.514;9.994;2024-01-27T04:17:25;5.50;99.90
981;DHT22;479;53.514;9.994;2024-01-27T04:19:52;5.50;99.90
981;DHT22;479;53.514;9.994;2024-01-27T04:22:19;5.50;99.90
981;DHT22;479;53.514;9.994;2024-01-27T04:24:47;5.50;99.90
981;DHT22;479;53.514;9.994;2024-01-27T04:27:14;5.60;99.90
981;DHT22;479;53.514;9.994;2024-01-27T04:29:41;5.70;99.90
981;DHT22;479;53.514;9.994;2024-01-27T04:32:08;5.70;99.90
981;DHT22;479;53.514;9.994;2024-01-27T04:34:35;5.70;99.90
981;DHT22;479;53.514;9.994;2024-01-27T04:37:03;5.70;99.90
981;DHT22;479;53.514;9.994;2024-01-27T04:39:30;5.70;99.90
981;DHT22;479;53.514;9.994;2024-01-27T04:41:58;5.70;99.90
981;DHT22;479;53.514;9.994;2024-01-27T04:44:25;5.60;99.90
981;DHT22;479;53.514;9.994;2024-01-27T04:46:52;5.60;99.90
981;DHT22;479;53.514;9.994;2024-01-27T04:49:18;5.60;99.90
981;DHT22;479;53.514;9.994;2024-01-27T04:51:45;5.60;99.90
981;DHT22;479;53.514;9.994;2024-01-27T04:54:12;5.60;99.90
981;DHT22;479;53.514;9.994;2024-01-27T04:56:39;5.60;99.90
981;DHT22;479;53.514;9.994;2024-01-27T04:59:08;5.50;99.90
981;DHT22;479;53.514;9.994;2024-01-27T05:01:34;5.60;99.90
981;DHT22;479;53.514;9.994;2024-01-27T05:04:01;5.60;99.90
981;DHT22;479;53.514;9.994;2024-01-27T05:06:28;5.50;99.90
981;DHT22;479;53.514;9.994;2024-01-27T05:08:55;5.50;99.90
981;DHT22;479;53.514;9.994;2024-01-27T05:11:27;5.40;99.90
981;DHT22;479;53.514;9.994;2024-01-27T05:13:54;5.40;99.90
981;DHT22;479;53.514;9.994;2024-01-27T05:16:22;5.30;99.90
981;DHT22;479;53.514;9.994;2024-01-27T05:18:49;5.20;99.90
981;DHT22;479;53.514;9.994;2024-01-27T05:21:16;5.20;99.90
981;DHT22;479;53.514;9.994;2024-01-27T05:23:43;5.10;99.90
981;DHT22;479;53.514;9.994;2024-01-27T05:26:10;5.10;99.90
981;DHT22;479;53.514;9.994;2024-01-27T05:28:37;5.00;99.90
981;DHT22;479;53.514;9.994;2024-01-27T05:31:07;5.00;99.90
981;DHT22;479;53.514;9.994;2024-01-27T05:33:35;4.90;99.90
981;DHT22;479;53.514;9.994;2024-01-27T05:36:02;4.90;99.90
981;DHT22;479;53.514;9.994;2024-01-27T05:38:29;4.90;99.90
981;DHT22;479;53.514;9.994;2024-01-27T05:40:58;4.90;99.90
981;DHT22;479;53.514;9.994;2024-01-27T05:43:27;4.90;99.90
981;DHT22;479;53.514;9.994;2024-01-27T05:45:53;4.90;99.90
981;DHT22;479;53.514;9.994;2024-01-27T05:48:20;4.80;99.90
981;DHT22;479;53.514;9.994;2024-01-27T05:50:56;4.80;99.90
981;DHT22;479;53.514;9.994;2024-01-27T05:53:24;4.70;99.90
981;DHT22;479;53.514;9.994;2024-01-27T05:55:50;4.70;99.90
981;DHT22;479;53.514;9.994;2024-01-27T05:58:17;4.70;99.90
981;DHT22;479;53.514;9.994;2024-01-27T06:00:47;4.70;99.90
981;DHT22;479;53.514;9.994;2024-01-27T06:03:13;4.70;99.90
981;DHT22;479;53.514;9.994;2024-01-27T06:05:41;4.70;99.90
981;DHT22;479;53.514;9.994;2024-01-27T06:08:09;4.60;99.90
981;DHT22;479;53.514;9.994;2024-01-27T06:10:36;4.60;99.90
981;DHT22;479;53.514;9.994;2024-01-27T06:13:03;4.50;99.90
981;DHT22;479;53.514;9.994;2024-01-27T06:15:30;4.50;99.90
981;DHT22;479;53.514;9.994;2024-01-27T06:17:57;4.60;99.90
981;DHT22;479;53.514;9.994;2024-01-27T06:20:24;4.60;99.90
981;DHT22;479;53.514;9.994;2024-01-27T06:22:51;4.60;99.90
981;DHT22;479;53.514;9.994;2024-01-27T06:25:20;4.60;99.90
981;DHT22;479;53.514;9.994;2024-01-27T06:27:47;4.60;99.90
981;DHT22;479;53.514;9.994;2024-01-27T06:30:15;4.60;99.90
981;DHT22;479;53.514;9.994;2024-01-27T06:32:42;4.70;99.90
981;DHT22;479;53.514;9.994;2024-01-27T06:35:09;4.60;99.90
981;DHT22;479;53.514;9.994;2024-01-27T06:37:36;4.60;99.90
981;DHT22;479;53.514;9.994;2024-01-27T06:40:03;4.50;99.90
981;DHT22;479;53.514;9.994;2024-01-27T06:42:31;4.50;99.90
981;DHT22;479;53.514;9.994;2024-01-27T06:44:58;4.40;99.90
981;DHT22;479;53.514;9.994;2024-01-27T06:47:25;4.40;99.90
981;DHT22;479;53.514;9.994;2024-01-27T06:49:52;4.30;99.90
981;DHT22;479;53.514;9.994;2024-01-27T06:52:19;4.30;99.90
981;DHT22;479;53.514;9.994;2024-01-27T06:54:46;4.30;99.90
981;DHT22;479;53.514;9.994;2024-01-27T06:57:19;4.30;99.90
981;DHT22;479;53.514;9.994;2024-01-27T06:59:49;4.20;99.90
981;DHT22;479;53.514;9.994;2024-01-27T07:02:19;4.20;99.90
981;DHT22;479;53.514;9.994;2024-01-27T07:04:46;4.20;99.90
981;DHT22;479;53.514;9.994;2024-01-27T07:07:13;4.20;99.90
981;DHT22;479;53.514;9.994;2024-01-27T07:09:40;4.20;99.90
981;DHT22;479;53.514;9.994;2024-01-27T07:12:07;4.20;99.90
981;DHT22;479;53.514;9.994;2024-01-27T07:14:34;4.10;99.90
981;DHT22;479;53.514;9.994;2024-01-27T07:17:04;4.20;99.90
981;DHT22;479;53.514;9.994;2024-01-27T07:19:31;4.20;99.90
981;DHT22;479;53.514;9.994;2024-01-27T07:21:58;4.20;99.90
981;DHT22;479;53.514;9.994;2024-01-27T07:24:25;4.10;99.90
981;DHT22;479;53.514;9.994;2024-01-27T07:26:52;4.20;99.90
981;DHT22;479;53.514;9.994;2024-01-27T07:29:19;4.20;99.90
981;DHT22;479;53.514;9.994;2024-01-27T07:31:47;4.20;99.90
981;DHT22;479;53.514;9.994;2024-01-27T07:34:15;4.20;99.90
981;DHT22;479;53.514;9.994;2024-01-27T07:36:42;4.20;99.90
981;DHT22;479;53.514;9.994;2024-01-27T07:39:09;4.20;99.90
981;DHT22;479;53.514;9.994;2024-01-27T07:41:36;4.20;99.90
981;DHT22;479;53.514;9.994;2024-01-27T07:44:10;4.20;99.90
981;DHT22;479;53.514;9.994;2024-01-27T07:46:37;4.20;99.90
981;DHT22;479;53.514;9.994;2024-01-27T07:49:05;4.20;99.90
981;DHT22;479;53.514;9.994;2024-01-27T07:51:34;4.30;99.90
981;DHT22;479;53.514;9.994;2024-01-27T07:54:01;4.50;99.90
981;DHT22;479;53.514;9.994;2024-01-27T07:56:28;4.50;99.90
981;DHT22;479;53.514;9.994;2024-01-27T07:58:54;4.50;99.90
981;DHT22;479;53.514;9.994;2024-01-27T08:01:21;4.50;99.90
981;DHT22;479;53.514;9.994;2024-01-27T08:03:48;4.50;99.90
981;DHT22;479;53.514;9.994;2024-01-27T08:06:17;4.60;99.90
981;DHT22;479;53.514;9.994;2024-01-27T08:08:47;4.70;99.90
981;DHT22;479;53.514;9.994;2024-01-27T08:11:14;4.70;99.90
981;DHT22;479;53.514;9.994;2024-01-27T08:13:43;4.80;99.90
981;DHT22;479;53.514;9.994;2024-01-27T08:16:10;4.90;99.90
981;DHT22;479;53.514;9.994;2024-01-27T08:18:38;5.40;99.90
981;DHT22;479;53.514;9.994;2024-01-27T08:21:05;6.10;99.90
981;DHT22;479;53.514;9.994;2024-01-27T08:23:32;7.10;99.90
981;DHT22;479;53.514;9.994;2024-01-27T08:26:00;7.80;99.90
981;DHT22;479;53.514;9.994;2024-01-27T08:28:28;7.90;99.90
981;DHT22;479;53.514;9.994;2024-01-27T08:30:54;8.30;99.90
981;DHT22;479;53.514;9.994;2024-01-27T08:33:21;8.40;99.90
981;DHT22;479;53.514;9.994;2024-01-27T08:35:47;8.70;99.90
981;DHT22;479;53.514;9.994;2024-01-27T08:38:14;8.90;99.90
981;DHT22;479;53.514;9.994;2024-01-27T08:40:41;9.30;99.90
981;DHT22;479;53.514;9.994;2024-01-27T08:43:09;10.50;99.90
981;DHT22;479;53.514;9.994;2024-01-27T08:45:38;11.20;99.90
981;DHT22;479;53.514;9.994;2024-01-27T08:48:06;11.10;99.90
981;DHT22;479;53.514;9.994;2024-01-27T08:50:33;10.90;99.90
981;DHT22;479;53.514;9.994;2024-01-27T08:53:00;10.20;99.90
981;DHT22;479;53.514;9.994;2024-01-27T08:55:28;11.10;99.90
981;DHT22;479;53.514;9.994;2024-01-27T08:57:55;12.20;99.90
981;DHT22;479;53.514;9.994;2024-01-27T09:00:24;12.90;99.90
981;DHT22;479;53.514;9.994;2024-01-27T09:02:52;13.20;99.90
981;DHT22;479;53.514;9.994;2024-01-27T09:05:19;13.10;99.90
981;DHT22;479;53.514;9.994;2024-01-27T09:07:46;13.40;99.90
981;DHT22;479;53.514;9.994;2024-01-27T09:10:13;13.80;99.90
981;DHT22;479;53.514;9.994;2024-01-27T09:12:41;14.10;99.90
981;DHT22;479;53.514;9.994;2024-01-27T09:15:09;13.80;99.90
981;DHT22;479;53.514;9.994;2024-01-27T09:17:38;13.50;99.90
981;DHT22;479;53.514;9.994;2024-01-27T09:20:06;13.50;99.90
981;DHT22;479;53.514;9.994;2024-01-27T09:22:33;14.70;99.90
981;DHT22;479;53.514;9.994;2024-01-27T09:25:00;14.90;99.90
981;DHT22;479;53.514;9.994;2024-01-27T09:27:27;14.40;99.90
981;DHT22;479;53.514;9.994;2024-01-27T09:29:54;14.10;99.90
981;DHT22;479;53.514;9.994;2024-01-27T09:32:21;13.40;99.90
981;DHT22;479;53.514;9.994;2024-01-27T09:34:49;13.20;99.90
981;DHT22;479;53.514;9.994;2024-01-27T09:37:19;12.30;99.90
981;DHT22;479;53.514;9.994;2024-01-27T09:39:46;12.00;99.90
981;DHT22;479;53.514;9.994;2024-01-27T09:42:13;12.00;99.90
981;DHT22;479;53.514;9.994;2024-01-27T09:44:43;11.70;99.90
981;DHT22;479;53.514;9.994;2024-01-27T09:47:11;12.20;99.90
981;DHT22;479;53.514;9.994;2024-01-27T09:49:39;12.80;99.90
981;DHT22;479;53.514;9.994;2024-01-27T09:52:09;12.80;99.90
981;DHT22;479;53.514;9.994;2024-01-27T09:54:36;12.20;99.90
981;DHT22;479;53.514;9.994;2024-01-27T09:57:03;12.00;99.90
981;DHT22;479;53.514;9.994;2024-01-27T09:59:32;12.20;99.90
981;DHT22;479;53.514;9.994;2024-01-27T10:02:00;12.30;99.90
981;DHT22;479;53.514;9.994;2024-01-27T10:04:29;12.40;99.90
981;DHT22;479;53.514;9.994;2024-01-27T10:06:57;13.50;99.90
981;DHT22;479;53.514;9.994;2024-01-27T10:09:26;15.00;99.90
981;DHT22;479;53.514;9.994;2024-01-27T10:11:54;15.90;99.90
981;DHT22;479;53.514;9.994;2024-01-27T10:14:22;17.20;99.90
981;DHT22;479;53.514;9.994;2024-01-27T10:16:49;17.50;99.90
981;DHT22;479;53.514;9.994;2024-01-27T10:19:17;17.60;99.90
981;DHT22;479;53.514;9.994;2024-01-27T10:21:45;18.00;99.90
981;DHT22;479;53.514;9.994;2024-01-27T10:24:11;18.30;99.90
981;DHT22;479;53.514;9.994;2024-01-27T10:26:40;18.30;99.90
981;DHT22;479;53.514;9.994;2024-01-27T10:29:08;18.80;99.90
981;DHT22;479;53.514;9.994;2024-01-27T10:31:35;18.80;99.90
981;DHT22;479;53.514;9.994;2024-01-27T10:34:02;18.20;99.90
981;DHT22;479;53.514;9.994;2024-01-27T10:36:40;18.60;99.90
981;DHT22;479;53.514;9.994;2024-01-27T10:39:17;19.00;99.90
981;DHT22;479;53.514;9.994;2024-01-27T10:41:47;18.10;99.90
981;DHT22;479;53.514;9.994;2024-01-27T10:44:15;17.50;99.90
981;DHT22;479;53.514;9.994;2024-01-27T10:46:43;18.00;99.90
981;DHT22;479;53.514;9.994;2024-01-27T10:49:13;18.00;99.90
981;DHT22;479;53.514;9.994;2024-01-27T10:51:43;17.70;99.90
981;DHT22;479;53.514;9.994;2024-01-27T10:54:14;17.40;99.90
981;DHT22;479;53.514;9.994;2024-01-27T10:56:42;16.70;99.90
981;DHT22;479;53.514;9.994;2024-01-27T10:59:11;16.40;99.90
981;DHT22;479;53.514;9.994;2024-01-27T11:01:41;15.50;99.90
981;DHT22;479;53.514;9.994;2024-01-27T11:04:10;14.90;99.90
981;DHT22;479;53.514;9.994;2024-01-27T11:06:39;14.60;99.90
981;DHT22;479;53.514;9.994;2024-01-27T11:09:08;14.30;99.90
981;DHT22;479;53.514;9.994;2024-01-27T11:11:38;13.90;99.90
981;DHT22;479;53.514;9.994;2024-01-27T11:14:06;13.70;99.90
981;DHT22;479;53.514;9.994;2024-01-27T11:16:34;13.30;99.90
981;DHT22;479;53.514;9.994;2024-01-27T11:19:01;12.70;99.90
981;DHT22;479;53.514;9.994;2024-01-27T11:21:28;12.10;99.90
981;DHT22;479;53.514;9.994;2024-01-27T11:23:55;11.70;99.90
981;DHT22;479;53.514;9.994;2024-01-27T11:26:23;11.60;99.90
981;DHT22;479;53.514;9.994;2024-01-27T11:28:51;11.40;99.90
981;DHT22;479;53.514;9.994;2024-01-27T11:31:19;11.30;99.90
981;DHT22;479;53.514;9.994;2024-01-27T11:33:49;11.20;99.90
981;DHT22;479;53.514;9.994;2024-01-27T11:36:21;11.00;99.90
981;DHT22;479;53.514;9.994;2024-01-27T11:38:49;10.60;99.90
981;DHT22;479;53.514;9.994;2024-01-27T11:41:26;10.40;99.90
981;DHT22;479;53.514;9.994;2024-01-27T11:43:54;10.30;99.90
981;DHT22;479;53.514;9.994;2024-01-27T11:46:22;10.10;99.90
981;DHT22;479;53.514;9.994;2024-01-27T11:48:50;10.10;99.90
981;DHT22;479;53.514;9.994;2024-01-27T11:51:18;10.00;99.90
981;DHT22;479;53.514;9.994;2024-01-27T11:53:45;9.90;99.90
981;DHT22;479;53.514;9.994;2024-01-27T11:56:13;9.60;99.90
981;DHT22;479;53.514;9.994;2024-01-27T11:58:47;9.90;99.90
981;DHT22;479;53.514;9.994;2024-01-27T12:01:16;10.10;99.90
981;DHT22;479;53.514;9.994;2024-01-27T12:03:43;9.80;99.90
981;DHT22;479;53.514;9.994;2024-01-27T12:06:13;9.70;99.90
981;DHT22;479;53.514;9.994;2024-01-27T12:08:41;9.40;99.90
981;DHT22;479;53.514;9.994;2024-01-27T12:11:12;9.20;99.90
981;DHT22;479;53.514;9.994;2024-01-27T12:13:40;9.10;99.90
981;DHT22;479;53.514;9.994;2024-01-27T12:16:07;9.20;99.90
981;DHT22;479;53.514;9.994;2024-01-27T12:18:35;9.40;99.90
981;DHT22;479;53.514;9.994;2024-01-27T12:21:02;9.20;99.90
981;DHT22;479;53.514;9.994;2024-01-27T12:23:30;9.00;99.90
981;DHT22;479;53.514;9.994;2024-01-27T12:25:57;9.00;99.90
981;DHT22;479;53.514;9.994;2024-01-27T12:28:24;9.00;99.90
981;DHT22;479;53.514;9.994;2024-01-27T12:30:52;9.00;99.90
981;DHT22;479;53.514;9.994;2024-01-27T12:33:20;9.00;99.90
981;DHT22;479;53.514;9.994;2024-01-27T12:35:51;9.20;99.90
981;DHT22;479;53.514;9.994;2024-01-27T12:38:20;9.10;99.90
981;DHT22;479;53.514;9.994;2024-01-27T12:40:48;9.10;99.90
981;DHT22;479;53.514;9.994;2024-01-27T12:43:15;9.10;99.90
981;DHT22;479;53.514;9.994;2024-01-27T12:45:42;9.00;99.90
981;DHT22;479;53.514;9.994;2024-01-27T12:48:09;9.00;99.90
981;DHT22;479;53.514;9.994;2024-01-27T12:50:35;9.00;99.90
981;DHT22;479;53.514;9.994;2024-01-27T12:53:03;9.00;99.90
981;DHT22;479;53.514;9.994;2024-01-27T12:55:30;8.90;99.90
981;DHT22;479;53.514;9.994;2024-01-27T12:57:58;8.80;99.90
981;DHT22;479;53.514;9.994;2024-01-27T13:00:25;8.90;99.90
981;DHT22;479;53.514;9.994;2024-01-27T13:02:52;9.10;99.90
981;DHT22;479;53.514;9.994;2024-01-27T13:05:19;9.10;99.90
981;DHT22;479;53.514;9.994;2024-01-27T13:07:46;8.90;99.90
981;DHT22;479;53.514;9.994;2024-01-27T13:10:14;8.80;99.90
981;DHT22;479;53.514;9.994;2024-01-27T13:12:41;8.70;99.90
981;DHT22;479;53.514;9.994;2024-01-27T13:15:09;8.70;99.90
981;DHT22;479;53.514;9.994;2024-01-27T13:17:36;8.60;99.90
981;DHT22;479;53.514;9.994;2024-01-27T13:20:04;8.60;99.90
981;DHT22;479;53.514;9.994;2024-01-27T13:22:31;8.60;99.90
981;DHT22;479;53.514;9.994;2024-01-27T13:24:58;8.70;99.90
981;DHT22;479;53.514;9.994;2024-01-27T13:27:27;8.60;99.90
981;DHT22;479;53.514;9.994;2024-01-27T13:29:57;8.70;99.90
981;DHT22;479;53.514;9.994;2024-01-27T13:32:25;8.70;99.90
981;DHT22;479;53.514;9.994;2024-01-27T13:34:52;8.70;99.90
981;DHT22;479;53.514;9.994;2024-01-27T13:37:20;8.60;99.90
981;DHT22;479;53.514;9.994;2024-01-27T13:39:47;8.70;99.90
981;DHT22;479;53.514;9.994;2024-01-27T13:42:14;8.70;99.90
981;DHT22;479;53.514;9.994;2024-01-27T13:44:41;8.70;99.90
981;DHT22;479;53.514;9.994;2024-01-27T13:47:08;8.60;99.90
981;DHT22;479;53.514;9.994;2024-01-27T13:49:36;8.50;99.90
981;DHT22;479;53.514;9.994;2024-01-27T13:52:04;8.50;99.90
981;DHT22;479;53.514;9.994;2024-01-27T13:54:31;8.50;99.90
981;DHT22;479;53.514;9.994;2024-01-27T13:56:59;8.60;99.90
981;DHT22;479;53.514;9.994;2024-01-27T13:59:26;8.50;99.90
981;DHT22;479;53.514;9.994;2024-01-27T14:01:53;8.50;99.90
981;DHT22;479;53.514;9.994;2024-01-27T14:04:22;8.50;99.90
981;DHT22;479;53.514;9.994;2024-01-27T14:06:52;8.60;99.90
981;DHT22;479;53.514;9.994;2024-01-27T14:09:19;8.50;99.90
981;DHT22;479;53.514;9.994;2024-01-27T14:11:46;8.40;99.90
981;DHT22;479;53.514;9.994;2024-01-27T14:14:14;8.40;99.90
981;DHT22;479;53.514;9.994;2024-01-27T14:16:43;8.40;99.90
981;DHT22;479;53.514;9.994;2024-01-27T14:19:10;8.40;99.90
981;DHT22;479;53.514;9.994;2024-01-27T14:21:37;8.40;99.90
981;DHT22;479;53.514;9.994;2024-01-27T14:24:07;8.30;99.90
981;DHT22;479;53.514;9.994;2024-01-27T14:26:34;8.20;99.90
981;DHT22;479;53.514;9.994;2024-01-27T14:29:01;8.20;99.90
981;DHT22;479;53.514;9.994;2024-01-27T14:31:28;8.10;99.90
981;DHT22;479;53.514;9.994;2024-01-27T14:33:56;8.10;99.90
981;DHT22;479;53.514;9.994;2024-01-27T14:36:23;8.10;99.90
981;DHT22;479;53.514;9.994;2024-01-27T14:38:50;8.10;99.90
981;DHT22;479;53.514;9.994;2024-01-27T14:41:18;8.10;99.90
981;DHT22;479;53.514;9.994;2024-01-27T14:43:45;8.00;99.90
981;DHT22;479;53.514;9.994;2024-01-27T14:46:15;8.00;99.90
981;DHT22;479;53.514;9.994;2024-01-27T14:48:42;7.90;99.90
981;DHT22;479;53.514;9.994;2024-01-27T14:51:10;7.90;99.90
981;DHT22;479;53.514;9.994;2024-01-27T14:53:38;7.90;99.90
981;DHT22;479;53.514;9.994;2024-01-27T14:56:05;7.90;99.90
981;DHT22;479;53.514;9.994;2024-01-27T14:58:34;7.90;99.90
981;DHT22;479;53.514;9.994;2024-01-27T15:01:01;7.90;99.90
981;DHT22;479;53.514;9.994;2024-01-27T15:03:28;7.90;99.90
981;DHT22;479;53.514;9.994;2024-01-27T15:05:55;7.80;99.90
981;DHT22;479;53.514;9.994;2024-01-27T15:08:22;7.80;99.90
981;DHT22;479;53.514;9.994;2024-01-27T15:10:49;7.70;99.90
981;DHT22;479;53.514;9.994;2024-01-27T15:13:16;7.70;99.90
981;DHT22;479;53.514;9.994;2024-01-27T15:15:47;7.70;99.90
981;DHT22;479;53.514;9.994;2024-01-27T15:18:14;7.60;99.90
981;DHT22;479;53.514;9.994;2024-01-27T15:20:42;7.60;99.90
981;DHT22;479;53.514;9.994;2024-01-27T15:23:09;7.60;99.90
981;DHT22;479;53.514;9.994;2024-01-27T15:25:36;7.50;99.90
981;DHT22;479;53.514;9.994;2024-01-27T15:28:03;7.50;99.90
981;DHT22;479;53.514;9.994;2024-01-27T15:30:30;7.40;99.90
981;DHT22;479;53.514;9.994;2024-01-27T15:32:59;7.40;99.90
981;DHT22;479;53.514;9.994;2024-01-27T15:35:26;7.40;99.90
981;DHT22;479;53.514;9.994;2024-01-27T15:37:55;7.40;99.90
981;DHT22;479;53.514;9.994;2024-01-27T15:40:22;7.30;99.90
981;DHT22;479;53.514;9.994;2024-01-27T15:42:51;7.30;99.90
981;DHT22;479;53.514;9.994;2024-01-27T15:45:18;7.30;99.90
981;DHT22;479;53.514;9.994;2024-01-27T15:47:45;7.20;99.90
981;DHT22;479;53.514;9.994;2024-01-27T15:50:13;7.20;99.90
981;DHT22;479;53.514;9.994;2024-01-27T15:52:42;7.20;99.90
981;DHT22;479;53.514;9.994;2024-01-27T15:55:09;7.10;99.90
981;DHT22;479;53.514;9.994;2024-01-27T15:57:36;7.10;99.90
981;DHT22;479;53.514;9.994;2024-01-27T16:00:04;7.00;99.90
981;DHT22;479;53.514;9.994;2024-01-27T16:02:36;7.00;99.90
981;DHT22;479;53.514;9.994;2024-01-27T16:05:04;7.00;99.90
981;DHT22;479;53.514;9.994;2024-01-27T16:07:32;7.00;99.90
981;DHT22;479;53.514;9.994;2024-01-27T16:09:59;6.90;99.90
981;DHT22;479;53.514;9.994;2024-01-27T16:12:31;6.90;99.90
981;DHT22;479;53.514;9.994;2024-01-27T16:14:58;6.80;99.90
981;DHT22;479;53.514;9.994;2024-01-27T16:17:25;6.80;99.90
981;DHT22;479;53.514;9.994;2024-01-27T16:19:52;6.80;99.90
981;DHT22;479;53.514;9.994;2024-01-27T16:22:20;6.70;99.90
981;DHT22;479;53.514;9.994;2024-01-27T16:24:50;6.70;99.90
981;DHT22;479;53.514;9.994;2024-01-27T16:27:17;6.70;99.90
981;DHT22;479;53.514;9.994;2024-01-27T16:29:46;6.60;99.90
981;DHT22;479;53.514;9.994;2024-01-27T16:32:13;6.50;99.90
981;DHT22;479;53.514;9.994;2024-01-27T16:34:43;6.60;99.90
981;DHT22;479;53.514;9.994;2024-01-27T16:37:10;6.60;99.90
981;DHT22;479;53.514;9.994;2024-01-27T16:39:37;6.60;99.90
981;DHT22;479;53.514;9.994;2024-01-27T16:42:10;6.50;99.90
981;DHT22;479;53.514;9.994;2024-01-27T16:44:38;6.50;99.90
981;DHT22;479;53.514;9.994;2024-01-27T16:47:10;6.50;99.90
981;DHT22;479;53.514;9.994;2024-01-27T16:49:37;6.50;99.90
981;DHT22;479;53.514;9.994;2024-01-27T16:52:05;6.40;99.90